sensor_id;sensor_type;location;lat;lon;timestamp;pressure;altitude;pressure_sealevel;temperature;humidity
69187;BME280;56301;56.864;60.554;2022-09-28T00:01:35;99313.56;;;25.25;51.54
69187;BME280;56301;56.864;60.554;2022-09-28T00:03:57;99311.84;;;25.24;51.94
69187;BME280;56301;56.864;60.554;2022-09-28T00:06:20;99315.59;;;25.23;51.75
69187;BME280;56301;56.864;60.554;2022-09-28T00:08:43;99309.13;;;25.24;52.10
69187;BME280;56301;56.864;60.554;2022-09-28T00:11:07;99316.41;;;25.23;51.59
69187;BME280;56301;56.864;60.554;2022-09-28T00:13:29;99314.75;;;25.22;51.36
69187;BME280;56301;56.864;60.554;2022-09-28T00:16:05;99309.31;;;25.22;51.65
69187;BME280;56301;56.864;60.554;2022-09-28T00:18:27;99312.53;;;25.26;51.00
69187;BME280;56301;56.864;60.554;2022-09-28T00:20:58;99313.22;;;25.28;51.68
69187;BME280;56301;56.864;60.554;2022-09-28T00:23:20;99312.19;;;25.29;51.52
69187;BME280;56301;56.864;60.554;2022-09-28T00:25:43;99305.75;;;25.30;51.00
69187;BME280;56301;56.864;60.554;2022-09-28T00:28:05;99311.34;;;25.28;51.10
69187;BME280;56301;56.864;60.554;2022-09-28T00:30:27;99299.81;;;25.26;52.03
69187;BME280;56301;56.864;60.554;2022-09-28T00:32:50;99303.91;;;25.22;52.22
69187;BME280;56301;56.864;60.554;2022-09-28T00:35:12;99311.84;;;25.24;51.44
69187;BME280;56301;56.864;60.554;2022-09-28T00:37:35;99310.50;;;25.28;51.47
69187;BME280;56301;56.864;60.554;2022-09-28T00:39:57;99303.72;;;25.32;51.30
69187;BME280;56301;56.864;60.554;2022-09-28T00:42:21;99309.78;;;25.34;51.31
69187;BME280;56301;56.864;60.554;2022-09-28T00:44:50;99308.78;;;25.35;50.92
69187;BME280;56301;56.864;60.554;2022-09-28T00:49:56;99309.78;;;25.34;50.70
69187;BME280;56301;56.864;60.554;2022-09-28T00:52:29;99302.88;;;25.31;51.17
69187;BME280;56301;56.864;60.554;2022-09-28T00:54:53;99305.09;;;25.28;51.79
69187;BME280;56301;56.864;60.554;2022-09-28T00:57:17;99307.81;;;25.28;50.93
69187;BME280;56301;56.864;60.554;2022-09-28T00:59:40;99317.25;;;25.32;51.67
69187;BME280;56301;56.864;60.554;2022-09-28T01:02:03;99307.75;;;25.36;50.72
69187;BME280;56301;56.864;60.554;2022-09-28T01:04:25;99288.16;;;25.26;51.07
69187;BME280;56301;56.864;60.554;2022-09-28T01:06:48;99313.34;;;25.42;51.42
69187;BME280;56301;56.864;60.554;2022-09-28T01:09:11;99311.47;;;25.43;51.05
69187;BME280;56301;56.864;60.554;2022-09-28T01:11:35;99317.88;;;25.50;50.75
69187;BME280;56301;56.864;60.554;2022-09-28T01:13:59;99314.81;;;25.45;51.90
69187;BME280;56301;56.864;60.554;2022-09-28T01:21:58;99317.91;;;25.42;51.17
69187;BME280;56301;56.864;60.554;2022-09-28T01:24:35;99325.34;;;25.40;51.60
69187;BME280;56301;56.864;60.554;2022-09-28T01:32:10;99323.69;;;25.39;51.22
69187;BME280;56301;56.864;60.554;2022-09-28T01:34:41;99317.22;;;25.40;51.58
69187;BME280;56301;56.864;60.554;2022-09-28T01:37:05;99319.75;;;25.41;51.14
69187;BME280;56301;56.864;60.554;2022-09-28T01:39:33;99320.97;;;25.39;50.98
69187;BME280;56301;56.864;60.554;2022-09-28T01:41:58;99320.63;;;25.42;51.16
69187;BME280;56301;56.864;60.554;2022-09-28T01:44:22;99315.53;;;25.39;50.76
69187;BME280;56301;56.864;60.554;2022-09-28T01:46:49;99320.13;;;25.38;50.84
69187;BME280;56301;56.864;60.554;2022-09-28T01:49:34;99315.53;;;25.39;51.12
69187;BME280;56301;56.864;60.554;2022-09-28T01:52:05;99328.56;;;25.43;51.49
69187;BME280;56301;56.864;60.554;2022-09-28T01:54:32;99323.97;;;25.44;51.67
69187;BME280;56301;56.864;60.554;2022-09-28T01:56:59;99329.41;;;25.44;50.41
69187;BME280;56301;56.864;60.554;2022-09-28T01:59:25;99334.81;;;25.44;51.76
69187;BME280;56301;56.864;60.554;2022-09-28T02:01:52;99343.63;;;25.46;50.92
69187;BME280;56301;56.864;60.554;2022-09-28T02:04:39;99346.34;;;25.46;50.95
69187;BME280;56301;56.864;60.554;2022-09-28T02:07:06;99350.91;;;25.45;51.15
69187;BME280;56301;56.864;60.554;2022-09-28T02:09:34;99349.84;;;25.55;50.90
69187;BME280;56301;56.864;60.554;2022-09-28T02:11:59;99351.03;;;25.60;51.72
69187;BME280;56301;56.864;60.554;2022-09-28T02:14:24;99348.97;;;25.62;50.73
69187;BME280;56301;56.864;60.554;2022-09-28T02:16:48;99352.72;;;25.61;51.22
69187;BME280;56301;56.864;60.554;2022-09-28T02:19:26;99350.53;;;25.57;51.79
69187;BME280;56301;56.864;60.554;2022-09-28T02:24:20;99354.25;;;25.56;50.70
69187;BME280;56301;56.864;60.554;2022-09-28T02:26:46;99348.81;;;25.56;51.54
69187;BME280;56301;56.864;60.554;2022-09-28T02:29:10;99359.66;;;25.56;51.74
69187;BME280;56301;56.864;60.554;2022-09-28T02:31:33;99356.13;;;25.55;51.96
69187;BME280;56301;56.864;60.554;2022-09-28T02:33:56;99356.81;;;25.57;51.37
69187;BME280;56301;56.864;60.554;2022-09-28T02:36:18;99358.47;;;25.58;50.63
69187;BME280;56301;56.864;60.554;2022-09-28T02:38:41;99357.63;;;25.58;50.77
69187;BME280;56301;56.864;60.554;2022-09-28T02:48:46;99372.38;;;25.55;51.86
69187;BME280;56301;56.864;60.554;2022-09-28T02:51:21;99371.34;;;25.56;50.99
69187;BME280;56301;56.864;60.554;2022-09-28T03:05:58;99369.84;;;25.54;51.87
69187;BME280;56301;56.864;60.554;2022-09-28T03:08:40;99378.63;;;25.56;50.88
69187;BME280;56301;56.864;60.554;2022-09-28T03:11:08;99370.84;;;25.53;51.02
69187;BME280;56301;56.864;60.554;2022-09-28T03:13:34;99373.56;;;25.53;51.83
69187;BME280;56301;56.864;60.554;2022-09-28T03:18:28;99379.13;;;25.59;51.46
69187;BME280;56301;56.864;60.554;2022-09-28T03:20:51;99376.41;;;25.67;51.04
69187;BME280;56301;56.864;60.554;2022-09-28T03:23:13;99384.53;;;25.67;51.78
69187;BME280;56301;56.864;60.554;2022-09-28T03:25:36;99380.13;;;25.66;51.09
69187;BME280;56301;56.864;60.554;2022-09-28T03:27:58;99390.31;;;25.64;51.25
69187;BME280;56301;56.864;60.554;2022-09-28T03:30:21;99394.69;;;25.65;50.44
69187;BME280;56301;56.864;60.554;2022-09-28T03:32:45;99394.16;;;25.70;51.61
69187;BME280;56301;56.864;60.554;2022-09-28T03:35:08;99397.72;;;25.70;51.64
69187;BME280;56301;56.864;60.554;2022-09-28T03:37:30;99400.44;;;25.70;51.82
69187;BME280;56301;56.864;60.554;2022-09-28T03:39:53;99398.59;;;25.71;51.67
69187;BME280;56301;56.864;60.554;2022-09-28T03:42:16;99403.81;;;25.73;51.20
69187;BME280;56301;56.864;60.554;2022-09-28T03:44:42;99402.84;;;25.65;52.04
69187;BME280;56301;56.864;60.554;2022-09-28T03:47:08;99403.69;;;25.66;51.81
69187;BME280;56301;56.864;60.554;2022-09-28T03:49:31;99408.59;;;25.62;50.93
69187;BME280;56301;56.864;60.554;2022-09-28T03:51:54;99406.25;;;25.51;50.85
69187;BME280;56301;56.864;60.554;2022-09-28T03:54:16;99406.59;;;25.48;50.78
69187;BME280;56301;56.864;60.554;2022-09-28T03:56:39;99408.31;;;25.49;51.26
69187;BME280;56301;56.864;60.554;2022-09-28T03:59:02;99410.34;;;25.47;51.70
69187;BME280;56301;56.864;60.554;2022-09-28T04:01:25;99410.34;;;25.47;50.65
69187;BME280;56301;56.864;60.554;2022-09-28T04:03:51;99414.91;;;25.47;51.04
69187;BME280;56301;56.864;60.554;2022-09-28T04:06:14;99413.72;;;25.49;51.44
69187;BME280;56301;56.864;60.554;2022-09-28T04:08:36;99421.00;;;25.49;51.37
69187;BME280;56301;56.864;60.554;2022-09-28T04:10:59;99428.28;;;25.48;50.84
69187;BME280;56301;56.864;60.554;2022-09-28T04:13:22;99419.50;;;25.46;50.78
69187;BME280;56301;56.864;60.554;2022-09-28T04:15:50;99419.84;;;25.43;51.29
69187;BME280;56301;56.864;60.554;2022-09-28T04:18:13;99426.78;;;25.37;51.16
69187;BME280;56301;56.864;60.554;2022-09-28T04:21:10;99427.13;;;25.42;51.11
69187;BME280;56301;56.864;60.554;2022-09-28T04:23:37;99425.25;;;25.43;51.52
69187;BME280;56301;56.864;60.554;2022-09-28T04:26:00;99423.56;;;25.42;52.06
69187;BME280;56301;56.864;60.554;2022-09-28T04:28:23;99437.28;;;25.40;51.41
69187;BME280;56301;56.864;60.554;2022-09-28T04:30:46;99437.47;;;25.39;51.22
69187;BME280;56301;56.864;60.554;2022-09-28T04:33:08;99432.03;;;25.39;51.36
69187;BME280;56301;56.864;60.554;2022-09-28T04:35:31;99442.19;;;25.37;51.74
69187;BME280;56301;56.864;60.554;2022-09-28T04:37:54;99441.34;;;25.36;51.62
69187;BME280;56301;56.864;60.554;2022-09-28T04:40:16;99434.25;;;25.35;51.23
69187;BME280;56301;56.864;60.554;2022-09-28T04:42:39;99438.81;;;25.35;51.60
69187;BME280;56301;56.864;60.554;2022-09-28T04:45:01;99446.25;;;25.33;51.05
69187;BME280;56301;56.864;60.554;2022-09-28T04:47:24;99432.38;;;25.36;51.79
69187;BME280;56301;56.864;60.554;2022-09-28T04:50:15;99435.91;;;25.36;51.59
69187;BME280;56301;56.864;60.554;2022-09-28T04:52:56;99438.81;;;25.35;51.05
69187;BME280;56301;56.864;60.554;2022-09-28T04:55:18;99439.66;;;25.35;51.84
69187;BME280;56301;56.864;60.554;2022-09-28T04:57:41;99435.09;;;25.36;51.30
69187;BME280;56301;56.864;60.554;2022-09-28T05:00:03;99437.78;;;25.36;51.65
69187;BME280;56301;56.864;60.554;2022-09-28T05:02:29;99432.38;;;25.36;51.70
69187;BME280;56301;56.864;60.554;2022-09-28T05:05:10;99438.81;;;25.35;50.57
69187;BME280;56301;56.864;60.554;2022-09-28T05:07:55;99439.66;;;25.35;51.12
69187;BME280;56301;56.864;60.554;2022-09-28T05:10:18;99437.78;;;25.36;50.43
69187;BME280;56301;56.864;60.554;2022-09-28T05:12:41;99438.81;;;25.35;49.94
69187;BME280;56301;56.864;60.554;2022-09-28T05:15:04;99433.22;;;25.36;50.85
69187;BME280;56301;56.864;60.554;2022-09-28T05:17:27;99442.19;;;25.37;51.08
69187;BME280;56301;56.864;60.554;2022-09-28T05:20:10;99443.88;;;25.38;51.26
69187;BME280;56301;56.864;60.554;2022-09-28T05:22:32;99438.44;;;25.38;50.97
69187;BME280;56301;56.864;60.554;2022-09-28T05:24:54;99439.13;;;25.40;50.58
69187;BME280;56301;56.864;60.554;2022-09-28T05:27:19;99439.31;;;25.38;50.17
69187;BME280;56301;56.864;60.554;2022-09-28T05:29:50;99451.84;;;25.39;50.75
69187;BME280;56301;56.864;60.554;2022-09-28T05:32:48;99449.97;;;25.40;50.35
69187;BME280;56301;56.864;60.554;2022-09-28T05:35:17;99444.56;;;25.40;51.03
69187;BME280;56301;56.864;60.554;2022-09-28T05:37:42;99442.53;;;25.42;50.40
69187;BME280;56301;56.864;60.554;2022-09-28T05:40:07;99437.13;;;25.42;49.84
69187;BME280;56301;56.864;60.554;2022-09-28T05:42:30;99445.25;;;25.42;51.09
69187;BME280;56301;56.864;60.554;2022-09-28T05:44:53;99436.94;;;25.43;50.46
69187;BME280;56301;56.864;60.554;2022-09-28T05:47:15;99429.31;;;25.47;49.85
69187;BME280;56301;56.864;60.554;2022-09-28T05:49:38;99434.72;;;25.47;50.35
69187;BME280;56301;56.864;60.554;2022-09-28T05:52:01;99431.16;;;25.47;49.87
69187;BME280;56301;56.864;60.554;2022-09-28T05:54:23;99427.63;;;25.46;50.68
69187;BME280;56301;56.864;60.554;2022-09-28T05:56:46;99432.19;;;25.45;50.31
69187;BME280;56301;56.864;60.554;2022-09-28T05:59:08;99434.91;;;25.45;50.60
69187;BME280;56301;56.864;60.554;2022-09-28T06:01:32;99441.16;;;25.46;50.24
69187;BME280;56301;56.864;60.554;2022-09-28T06:03:56;99437.44;;;25.47;49.73
69187;BME280;56301;56.864;60.554;2022-09-28T06:06:19;99432.00;;;25.47;49.82
69187;BME280;56301;56.864;60.554;2022-09-28T06:08:43;99431.81;;;25.49;50.34
69187;BME280;56301;56.864;60.554;2022-09-28T06:11:28;99440.66;;;25.51;50.87
69187;BME280;56301;56.864;60.554;2022-09-28T06:13:53;99430.66;;;25.51;49.58
69187;BME280;56301;56.864;60.554;2022-09-28T06:16:16;99434.88;;;25.54;49.67
69187;BME280;56301;56.864;60.554;2022-09-28T06:18:39;99437.41;;;25.55;49.52
69187;BME280;56301;56.864;60.554;2022-09-28T06:21:07;99436.56;;;25.55;49.94
69187;BME280;56301;56.864;60.554;2022-09-28T06:23:33;99439.78;;;25.58;49.90
69187;BME280;56301;56.864;60.554;2022-09-28T06:25:57;99440.81;;;25.57;49.60
69187;BME280;56301;56.864;60.554;2022-09-28T06:28:19;99442.31;;;25.60;49.68
69187;BME280;56301;56.864;60.554;2022-09-28T06:30:42;99436.72;;;25.61;49.39
69187;BME280;56301;56.864;60.554;2022-09-28T06:33:09;99436.53;;;25.63;49.97
69187;BME280;56301;56.864;60.554;2022-09-28T06:35:32;99439.09;;;25.64;49.00
69187;BME280;56301;56.864;60.554;2022-09-28T06:37:55;99441.63;;;25.66;49.67
69187;BME280;56301;56.864;60.554;2022-09-28T06:40:18;99442.31;;;25.68;49.86
69187;BME280;56301;56.864;60.554;2022-09-28T06:42:41;99443.78;;;25.70;49.22
69187;BME280;56301;56.864;60.554;2022-09-28T06:45:35;99442.97;;;25.70;49.03
69187;BME280;56301;56.864;60.554;2022-09-28T06:48:19;99441.78;;;25.73;49.17
69187;BME280;56301;56.864;60.554;2022-09-28T06:50:41;99440.94;;;25.72;49.41
69187;BME280;56301;56.864;60.554;2022-09-28T06:53:42;99444.47;;;25.73;49.97
69187;BME280;56301;56.864;60.554;2022-09-28T06:56:11;99451.59;;;25.74;49.82
69187;BME280;56301;56.864;60.554;2022-09-28T06:58:33;99437.19;;;25.73;49.78
69187;BME280;56301;56.864;60.554;2022-09-28T07:00:57;99448.88;;;25.74;49.75
69187;BME280;56301;56.864;60.554;2022-09-28T07:03:21;99448.03;;;25.73;50.22
69187;BME280;56301;56.864;60.554;2022-09-28T07:06:02;99441.09;;;25.70;49.07
69187;BME280;56301;56.864;60.554;2022-09-28T07:08:34;99443.78;;;25.70;49.96
69187;BME280;56301;56.864;60.554;2022-09-28T07:11:15;99449.22;;;25.70;50.14
69187;BME280;56301;56.864;60.554;2022-09-28T07:13:40;99450.09;;;25.71;50.13
69187;BME280;56301;56.864;60.554;2022-09-28T07:16:03;99443.47;;;25.74;49.93
69187;BME280;56301;56.864;60.554;2022-09-28T07:18:27;99455.31;;;25.73;49.91
69187;BME280;56301;56.864;60.554;2022-09-28T07:20:49;99448.22;;;25.72;49.04
69187;BME280;56301;56.864;60.554;2022-09-28T07:23:11;99458.03;;;25.73;49.99
69187;BME280;56301;56.864;60.554;2022-09-28T07:25:54;99444.28;;;25.74;49.35
69187;BME280;56301;56.864;60.554;2022-09-28T07:28:36;99445.16;;;25.75;49.91
69187;BME280;56301;56.864;60.554;2022-09-28T07:31:16;99445.16;;;25.75;50.31
69187;BME280;56301;56.864;60.554;2022-09-28T07:34:08;99443.31;;;25.75;49.80
69187;BME280;56301;56.864;60.554;2022-09-28T07:36:50;99442.28;;;25.76;49.65
69187;BME280;56301;56.864;60.554;2022-09-28T07:39:13;99433.31;;;25.76;50.26
69187;BME280;56301;56.864;60.554;2022-09-28T07:41:36;99433.00;;;25.79;49.69
69187;BME280;56301;56.864;60.554;2022-09-28T07:44:01;99438.22;;;25.80;49.89
69187;BME280;56301;56.864;60.554;2022-09-28T07:46:24;99426.75;;;26.09;48.86
69187;BME280;56301;56.864;60.554;2022-09-28T07:48:52;99438.88;;;26.30;48.60
69187;BME280;56301;56.864;60.554;2022-09-28T07:51:50;99435.13;;;26.31;48.81
69187;BME280;56301;56.864;60.554;2022-09-28T07:54:24;99431.78;;;26.21;49.33
69187;BME280;56301;56.864;60.554;2022-09-28T07:57:04;99431.81;;;26.12;48.85
69187;BME280;56301;56.864;60.554;2022-09-28T07:59:56;99432.19;;;26.09;49.27
69187;BME280;56301;56.864;60.554;2022-09-28T08:02:38;99432.22;;;26.32;48.96
69187;BME280;56301;56.864;60.554;2022-09-28T08:05:01;99433.31;;;26.23;49.21
69187;BME280;56301;56.864;60.554;2022-09-28T08:07:23;99431.97;;;26.19;49.33
69187;BME280;56301;56.864;60.554;2022-09-28T08:09:52;99428.25;;;26.51;48.69
69187;BME280;56301;56.864;60.554;2022-09-28T08:12:24;99428.75;;;26.78;47.92
69187;BME280;56301;56.864;60.554;2022-09-28T08:15:15;99419.03;;;26.83;47.29
69187;BME280;56301;56.864;60.554;2022-09-28T08:18:02;99418.66;;;26.63;48.13
69187;BME280;56301;56.864;60.554;2022-09-28T08:20:25;99422.16;;;26.49;47.75
69187;BME280;56301;56.864;60.554;2022-09-28T08:22:47;99427.41;;;26.42;49.09
69187;BME280;56301;56.864;60.554;2022-09-28T08:25:10;99419.13;;;26.44;49.36
69187;BME280;56301;56.864;60.554;2022-09-28T08:27:32;99428.25;;;26.43;49.11
69187;BME280;56301;56.864;60.554;2022-09-28T08:29:54;99426.94;;;26.39;48.76
69187;BME280;56301;56.864;60.554;2022-09-28T08:32:55;99430.19;;;26.34;49.11
69187;BME280;56301;56.864;60.554;2022-09-28T08:35:36;99425.31;;;26.30;49.76
69187;BME280;56301;56.864;60.554;2022-09-28T08:38:26;99423.97;;;26.26;50.12
69187;BME280;56301;56.864;60.554;2022-09-28T08:46:33;99427.44;;;26.03;50.40
69187;BME280;56301;56.864;60.554;2022-09-28T08:49:39;99419.00;;;25.98;50.66
69187;BME280;56301;56.864;60.554;2022-09-28T08:52:33;99419.69;;;25.92;50.33
69187;BME280;56301;56.864;60.554;2022-09-28T08:55:31;99426.16;;;25.91;50.19
69187;BME280;56301;56.864;60.554;2022-09-28T09:00:32;99431.09;;;25.87;50.77
69187;BME280;56301;56.864;60.554;2022-09-28T09:02:57;99427.69;;;25.85;50.78
69187;BME280;56301;56.864;60.554;2022-09-28T09:05:22;99431.63;;;25.83;50.31
69187;BME280;56301;56.864;60.554;2022-09-28T09:08:06;99433.00;;;25.79;51.19
69187;BME280;56301;56.864;60.554;2022-09-28T09:10:37;99435.81;;;25.77;51.29
69187;BME280;56301;56.864;60.554;2022-09-28T09:15:52;99437.38;;;25.72;50.67
69187;BME280;56301;56.864;60.554;2022-09-28T09:18:53;99432.13;;;25.70;50.90
69187;BME280;56301;56.864;60.554;2022-09-28T09:24:25;99446.19;;;25.65;51.55
69187;BME280;56301;56.864;60.554;2022-09-28T09:26:51;99441.97;;;25.63;51.04
69187;BME280;56301;56.864;60.554;2022-09-28T09:41:16;99450.31;;;25.53;50.47
69187;BME280;56301;56.864;60.554;2022-09-28T09:43:44;99447.75;;;25.52;50.65
69187;BME280;56301;56.864;60.554;2022-09-28T09:49:23;99449.94;;;25.48;51.23
69187;BME280;56301;56.864;60.554;2022-09-28T09:54:11;99457.44;;;25.46;50.60
69187;BME280;56301;56.864;60.554;2022-09-28T09:56:38;99456.59;;;25.45;51.17
69187;BME280;56301;56.864;60.554;2022-09-28T09:59:35;99454.03;;;25.44;51.10
69187;BME280;56301;56.864;60.554;2022-09-28T10:02:21;99457.75;;;25.43;51.09
69187;BME280;56301;56.864;60.554;2022-09-28T10:04:53;99457.06;;;25.41;51.24
69187;BME280;56301;56.864;60.554;2022-09-28T10:07:48;99457.25;;;25.39;51.26
69187;BME280;56301;56.864;60.554;2022-09-28T10:10:11;99452.88;;;25.38;50.88
69187;BME280;56301;56.864;60.554;2022-09-28T10:12:42;99457.59;;;25.36;50.50
69187;BME280;56301;56.864;60.554;2022-09-28T10:15:05;99466.56;;;25.37;51.24
69187;BME280;56301;56.864;60.554;2022-09-28T10:17:29;99461.34;;;25.35;50.87
69187;BME280;56301;56.864;60.554;2022-09-28T10:20:30;99464.03;;;25.35;51.32
69187;BME280;56301;56.864;60.554;2022-09-28T10:23:04;99466.06;;;25.33;50.81
69187;BME280;56301;56.864;60.554;2022-09-28T10:25:27;99466.91;;;25.34;50.79
69187;BME280;56301;56.864;60.554;2022-09-28T10:27:51;99458.13;;;25.32;51.60
69187;BME280;56301;56.864;60.554;2022-09-28T10:30:20;99452.69;;;25.32;50.60
69187;BME280;56301;56.864;60.554;2022-09-28T10:32:47;99461.66;;;25.32;50.78
69187;BME280;56301;56.864;60.554;2022-09-28T10:35:19;99457.09;;;25.33;50.83
69187;BME280;56301;56.864;60.554;2022-09-28T10:37:53;99451.69;;;25.33;51.20
69187;BME280;56301;56.864;60.554;2022-09-28T10:40:53;99454.19;;;25.34;51.10
69187;BME280;56301;56.864;60.554;2022-09-28T10:43:26;99446.94;;;25.35;51.28
69187;BME280;56301;56.864;60.554;2022-09-28T10:48:23;99445.22;;;25.34;51.33
69187;BME280;56301;56.864;60.554;2022-09-28T10:50:58;99447.94;;;25.34;51.01
69187;BME280;56301;56.864;60.554;2022-09-28T10:53:21;99442.53;;;25.34;51.15
69187;BME280;56301;56.864;60.554;2022-09-28T10:56:00;99442.72;;;25.32;50.34
69187;BME280;56301;56.864;60.554;2022-09-28T10:58:25;99440.84;;;25.33;50.35
69187;BME280;56301;56.864;60.554;2022-09-28T11:00:47;99441.69;;;25.33;50.50
69187;BME280;56301;56.864;60.554;2022-09-28T11:03:19;99437.09;;;25.34;50.36
69187;BME280;56301;56.864;60.554;2022-09-28T11:05:51;99444.38;;;25.33;50.63
69187;BME280;56301;56.864;60.554;2022-09-28T11:08:14;99442.53;;;25.34;50.59
69187;BME280;56301;56.864;60.554;2022-09-28T11:10:41;99441.69;;;25.33;50.18
69187;BME280;56301;56.864;60.554;2022-09-28T11:13:09;99434.72;;;25.31;50.22
69187;BME280;56301;56.864;60.554;2022-09-28T11:15:33;99442.84;;;25.31;50.61
69187;BME280;56301;56.864;60.554;2022-09-28T11:18:44;99440.34;;;25.29;50.82
69187;BME280;56301;56.864;60.554;2022-09-28T11:20:42;99440.66;;;25.26;50.19
69187;BME280;56301;56.864;60.554;2022-09-28T11:25:36;99443.56;;;25.25;50.12
69187;BME280;56301;56.864;60.554;2022-09-28T11:28:00;99433.91;;;25.22;50.50
69187;BME280;56301;56.864;60.554;2022-09-28T11:30:27;99443.91;;;25.21;50.56
69187;BME280;56301;56.864;60.554;2022-09-28T11:33:15;99442.22;;;25.20;51.04
69187;BME280;56301;56.864;60.554;2022-09-28T11:38:38;99454.03;;;25.19;50.56
69187;BME280;56301;56.864;60.554;2022-09-28T11:41:24;99455.06;;;25.18;50.73
69187;BME280;56301;56.864;60.554;2022-09-28T11:46:32;99447.13;;;25.17;50.53
69187;BME280;56301;56.864;60.554;2022-09-28T11:50:05;99442.56;;;25.17;51.35
69187;BME280;56301;56.864;60.554;2022-09-28T11:51:55;99440.34;;;25.29;50.50
69187;BME280;56301;56.864;60.554;2022-09-28T11:54:29;99440.84;;;25.33;50.20
69187;BME280;56301;56.864;60.554;2022-09-28T11:56:52;99437.09;;;25.34;50.51
69187;BME280;56301;56.864;60.554;2022-09-28T11:59:20;99444.25;;;25.35;50.72
69187;BME280;56301;56.864;60.554;2022-09-28T12:06:56;99441.50;;;25.27;51.06
69187;BME280;56301;56.864;60.554;2022-09-28T12:12:05;99452.19;;;25.28;50.43
69187;BME280;56301;56.864;60.554;2022-09-28T12:14:40;99456.59;;;25.29;51.38
69187;BME280;56301;56.864;60.554;2022-09-28T12:17:08;99449.31;;;25.30;51.41
69187;BME280;56301;56.864;60.554;2022-09-28T12:19:40;99444.56;;;25.32;50.92
69187;BME280;56301;56.864;60.554;2022-09-28T12:22:08;99446.94;;;25.35;50.44
69187;BME280;56301;56.864;60.554;2022-09-28T12:24:35;99446.56;;;25.38;50.88
69187;BME280;56301;56.864;60.554;2022-09-28T12:29:32;99457.78;;;25.35;51.18
69187;BME280;56301;56.864;60.554;2022-09-28T12:34:33;99453.53;;;25.32;51.49
69187;BME280;56301;56.864;60.554;2022-09-28T12:37:14;99459.13;;;25.31;51.29
69187;BME280;56301;56.864;60.554;2022-09-28T12:39:45;99453.53;;;25.32;50.24
69187;BME280;56301;56.864;60.554;2022-09-28T12:42:32;99458.78;;;25.34;51.13
69187;BME280;56301;56.864;60.554;2022-09-28T12:45:00;99460.50;;;25.35;50.15
69187;BME280;56301;56.864;60.554;2022-09-28T12:50:08;99470.97;;;25.38;49.93
69187;BME280;56301;56.864;60.554;2022-09-28T13:00:08;99477.25;;;25.38;50.36
69187;BME280;56301;56.864;60.554;2022-09-28T13:05:18;99467.41;;;25.37;50.21
69187;BME280;56301;56.864;60.554;2022-09-28T13:10:18;99470.94;;;25.54;50.70
69187;BME280;56301;56.864;60.554;2022-09-28T13:12:54;99467.56;;;25.60;50.37
69187;BME280;56301;56.864;60.554;2022-09-28T13:17:58;99473.31;;;25.57;49.99
69187;BME280;56301;56.864;60.554;2022-09-28T13:22:58;99478.75;;;25.57;50.30
69187;BME280;56301;56.864;60.554;2022-09-28T13:25:23;99471.28;;;25.59;51.12
69187;BME280;56301;56.864;60.554;2022-09-28T13:27:49;99478.22;;;25.62;50.14
69187;BME280;56301;56.864;60.554;2022-09-28T13:30:12;99474.66;;;25.61;50.20
69187;BME280;56301;56.864;60.554;2022-09-28T13:32:35;99476.34;;;25.62;51.02
69187;BME280;56301;56.864;60.554;2022-09-28T13:34:58;99479.91;;;25.63;50.87
69187;BME280;56301;56.864;60.554;2022-09-28T13:37:22;99475.31;;;25.63;50.94
69187;BME280;56301;56.864;60.554;2022-09-28T13:39:46;99478.72;;;25.65;50.77
69187;BME280;56301;56.864;60.554;2022-09-28T13:42:09;99483.13;;;25.66;50.58
69187;BME280;56301;56.864;60.554;2022-09-28T13:47:23;99483.94;;;25.67;50.85
69187;BME280;56301;56.864;60.554;2022-09-28T13:52:51;99480.75;;;25.80;49.84
69187;BME280;56301;56.864;60.554;2022-09-28T13:55:27;99483.13;;;25.83;50.37
69187;BME280;56301;56.864;60.554;2022-09-28T14:02:48;99488.34;;;25.84;50.42
69187;BME280;56301;56.864;60.554;2022-09-28T14:13:05;99489.34;;;25.91;50.77
69187;BME280;56301;56.864;60.554;2022-09-28T14:18:00;99479.34;;;25.92;50.59
69187;BME280;56301;56.864;60.554;2022-09-28T14:20:26;99471.75;;;25.87;50.00
69187;BME280;56301;56.864;60.554;2022-09-28T14:32:58;99489.88;;;25.87;50.54
69187;BME280;56301;56.864;60.554;2022-09-28T14:37:45;99486.50;;;25.85;50.52
69187;BME280;56301;56.864;60.554;2022-09-28T14:40:19;99491.06;;;25.84;50.03
69187;BME280;56301;56.864;60.554;2022-09-28T14:42:42;99486.34;;;25.86;50.59
69187;BME280;56301;56.864;60.554;2022-09-28T14:45:34;99489.88;;;25.87;49.92
69187;BME280;56301;56.864;60.554;2022-09-28T14:50:37;99497.34;;;25.93;50.59
69187;BME280;56301;56.864;60.554;2022-09-28T14:53:04;99496.31;;;25.94;50.61
69187;BME280;56301;56.864;60.554;2022-09-28T14:55:28;99493.59;;;25.94;50.51
69187;BME280;56301;56.864;60.554;2022-09-28T14:57:54;99490.19;;;25.92;50.68
69187;BME280;56301;56.864;60.554;2022-09-28T15:00:21;99485.63;;;25.92;50.99
69187;BME280;56301;56.864;60.554;2022-09-28T15:02:48;99483.78;;;25.93;50.19
69187;BME280;56301;56.864;60.554;2022-09-28T15:05:15;99483.59;;;25.95;51.07
69187;BME280;56301;56.864;60.554;2022-09-28T15:10:04;99482.41;;;25.97;50.85
69187;BME280;56301;56.864;60.554;2022-09-28T15:12:36;99485.13;;;25.97;50.50
69187;BME280;56301;56.864;60.554;2022-09-28T15:15:05;99477.31;;;25.94;50.71
69187;BME280;56301;56.864;60.554;2022-09-28T15:17:32;99479.00;;;25.95;50.12
69187;BME280;56301;56.864;60.554;2022-09-28T15:20:08;99476.63;;;25.92;50.99
69187;BME280;56301;56.864;60.554;2022-09-28T15:22:36;99473.59;;;25.95;50.86
69187;BME280;56301;56.864;60.554;2022-09-28T15:25:17;99472.56;;;25.96;50.46
69187;BME280;56301;56.864;60.554;2022-09-28T15:27:40;99477.81;;;25.98;50.13
69187;BME280;56301;56.864;60.554;2022-09-28T15:32:37;99471.22;;;26.00;50.38
69187;BME280;56301;56.864;60.554;2022-09-28T15:35:13;99476.25;;;26.03;50.37